sensor_id;sensor_type;location;lat;lon;timestamp;pressure;altitude;pressure_sealevel;temperature;humidity
4972;BME280;2501;51.214;6.768;2022-12-18T00:00:13;102588.88;;;-3.99;86.15
4972;BME280;2501;51.214;6.768;2022-12-18T00:02:42;102584.97;;;-4.04;85.69
4972;BME280;2501;51.214;6.768;2022-12-18T00:05:10;102595.03;;;-3.97;85.70
4972;BME280;2501;51.214;6.768;2022-12-18T00:07:38;102586.63;;;-4.05;85.84
4972;BME280;2501;51.214;6.768;2022-12-18T00:10:08;102585.25;;;-4.01;85.68
4972;BME280;2501;51.214;6.768;2022-12-18T00:12:39;102599.31;;;-4.06;85.50
4972;BME280;2501;51.214;6.768;2022-12-18T00:15:08;102593.50;;;-3.95;85.40
4972;BME280;2501;51.214;6.768;2022-12-18T00:17:36;102595.66;;;-4.00;85.36
4972;BME280;2501;51.214;6.768;2022-12-18T00:20:06;102601.19;;;-3.95;85.33
4972;BME280;2501;51.214;6.768;2022-12-18T00:22:34;102600.28;;;-3.96;85.17
4972;BME280;2501;51.214;6.768;2022-12-18T00:25:04;102602.91;;;-4.04;84.81
4972;BME280;2501;51.214;6.768;2022-12-18T00:27:32;102596.69;;;-3.98;85.05
4972;BME280;2501;51.214;6.768;2022-12-18T00:30:04;102598.25;;;-4.08;85.03
4972;BME280;2501;51.214;6.768;2022-12-18T00:32:33;102602.31;;;-4.02;84.83
4972;BME280;2501;51.214;6.768;2022-12-18T00:35:01;102597.78;;;-4.04;84.86
4972;BME280;2501;51.214;6.768;2022-12-18T00:37:30;102605.19;;;-4.07;85.15
4972;BME280;2501;51.214;6.768;2022-12-18T00:39:58;102608.22;;;-4.11;85.13
4972;BME280;2501;51.214;6.768;2022-12-18T00:42:26;102611.81;;;-4.09;85.06
4972;BME280;2501;51.214;6.768;2022-12-18T00:45:10;102600.66;;;-4.10;85.12
4972;BME280;2501;51.214;6.768;2022-12-18T00:47:39;102595.75;;;-4.17;85.25
4972;BME280;2501;51.214;6.768;2022-12-18T00:50:08;102592.44;;;-4.16;85.49
4972;BME280;2501;51.214;6.768;2022-12-18T00:52:37;102590.19;;;-4.22;85.45
4972;BME280;2501;51.214;6.768;2022-12-18T00:55:06;102589.44;;;-4.21;85.55
4972;BME280;2501;51.214;6.768;2022-12-18T00:57:35;102597.88;;;-4.22;85.34
4972;BME280;2501;51.214;6.768;2022-12-18T01:00:05;102594.41;;;-4.22;85.48
4972;BME280;2501;51.214;6.768;2022-12-18T01:02:36;102595.00;;;-4.16;85.48
4972;BME280;2501;51.214;6.768;2022-12-18T01:05:05;102599.47;;;-4.13;85.24
4972;BME280;2501;51.214;6.768;2022-12-18T01:07:34;102587.78;;;-4.20;85.11
4972;BME280;2501;51.214;6.768;2022-12-18T01:10:04;102581.00;;;-4.28;85.27
4972;BME280;2501;51.214;6.768;2022-12-18T01:12:32;102575.66;;;-4.12;85.45
4972;BME280;2501;51.214;6.768;2022-12-18T01:15:01;102585.22;;;-4.29;85.42
4972;BME280;2501;51.214;6.768;2022-12-18T01:17:29;102590.66;;;-4.26;85.63
4972;BME280;2501;51.214;6.768;2022-12-18T01:20:00;102591.59;;;-4.34;85.59
4972;BME280;2501;51.214;6.768;2022-12-18T01:22:28;102595.31;;;-4.22;85.99
4972;BME280;2501;51.214;6.768;2022-12-18T01:24:57;102590.34;;;-4.29;85.81
4972;BME280;2501;51.214;6.768;2022-12-18T01:27:25;102580.25;;;-4.27;85.91
4972;BME280;2501;51.214;6.768;2022-12-18T01:29:54;102591.25;;;-4.28;85.77
4972;BME280;2501;51.214;6.768;2022-12-18T01:32:22;102597.56;;;-4.25;85.89
4972;BME280;2501;51.214;6.768;2022-12-18T01:34:51;102593.81;;;-4.28;85.72
4972;BME280;2501;51.214;6.768;2022-12-18T01:37:22;102580.09;;;-4.29;85.89
4972;BME280;2501;51.214;6.768;2022-12-18T01:39:52;102581.47;;;-4.32;85.78
4972;BME280;2501;51.214;6.768;2022-12-18T01:42:21;102581.47;;;-4.32;85.75
4972;BME280;2501;51.214;6.768;2022-12-18T01:45:03;102576.25;;;-4.34;85.38
4972;BME280;2501;51.214;6.768;2022-12-18T01:47:35;102578.75;;;-4.25;85.50
4972;BME280;2501;51.214;6.768;2022-12-18T01:50:08;102579.97;;;-4.30;85.27
4972;BME280;2501;51.214;6.768;2022-12-18T01:52:41;102580.56;;;-4.33;85.05
4972;BME280;2501;51.214;6.768;2022-12-18T01:55:11;102583.78;;;-4.35;85.39
4972;BME280;2501;51.214;6.768;2022-12-18T01:57:41;102587.84;;;-4.37;85.50
4972;BME280;2501;51.214;6.768;2022-12-18T02:00:12;102594.28;;;-4.32;85.57
4972;BME280;2501;51.214;6.768;2022-12-18T02:02:42;102590.19;;;-4.22;85.37
4972;BME280;2501;51.214;6.768;2022-12-18T02:05:12;102591.31;;;-4.37;85.40
4972;BME280;2501;51.214;6.768;2022-12-18T02:07:51;102595.19;;;-4.32;85.33
4972;BME280;2501;51.214;6.768;2022-12-18T02:10:28;102587.47;;;-4.23;85.55
4972;BME280;2501;51.214;6.768;2022-12-18T02:13:06;102579.41;;;-4.36;85.33
4972;BME280;2501;51.214;6.768;2022-12-18T02:15:43;102576.09;;;-4.35;85.75
4972;BME280;2501;51.214;6.768;2022-12-18T02:18:19;102579.56;;;-4.35;85.77
4972;BME280;2501;51.214;6.768;2022-12-18T02:20:54;102587.47;;;-4.23;85.75
4972;BME280;2501;51.214;6.768;2022-12-18T02:23:40;102587.84;;;-4.37;85.61
4972;BME280;2501;51.214;6.768;2022-12-18T02:26:19;102582.88;;;-4.44;86.11
4972;BME280;2501;51.214;6.768;2022-12-18T02:28:51;102577.91;;;-4.43;86.23
4972;BME280;2501;51.214;6.768;2022-12-18T02:31:23;102577.00;;;-4.35;86.18
4972;BME280;2501;51.214;6.768;2022-12-18T02:33:55;102573.09;;;-4.40;86.12
4972;BME280;2501;51.214;6.768;2022-12-18T02:36:26;102567.44;;;-4.27;86.17
4972;BME280;2501;51.214;6.768;2022-12-18T02:38:56;102562.47;;;-4.26;86.06
4972;BME280;2501;51.214;6.768;2022-12-18T02:41:29;102561.88;;;-4.32;85.68
4972;BME280;2501;51.214;6.768;2022-12-18T02:44:06;102563.97;;;-4.28;85.69
4972;BME280;2501;51.214;6.768;2022-12-18T02:46:37;102562.47;;;-4.26;85.51
4972;BME280;2501;51.214;6.768;2022-12-18T02:49:19;102567.44;;;-4.27;85.36
4972;BME280;2501;51.214;6.768;2022-12-18T02:51:53;102571.72;;;-4.09;85.84
4972;BME280;2501;51.214;6.768;2022-12-18T02:54:34;102574.06;;;-4.21;85.50
4972;BME280;2501;51.214;6.768;2022-12-18T02:57:14;102574.97;;;-4.20;85.59
4972;BME280;2501;51.214;6.768;2022-12-18T02:59:49;102569.53;;;-4.23;85.58
4972;BME280;2501;51.214;6.768;2022-12-18T03:02:24;102567.88;;;-4.23;85.38
4972;BME280;2501;51.214;6.768;2022-12-18T03:04:58;102562.38;;;-4.08;85.60
4972;BME280;2501;51.214;6.768;2022-12-18T03:07:35;102561.25;;;-4.21;85.21
4972;BME280;2501;51.214;6.768;2022-12-18T03:10:07;102568.19;;;-4.19;85.21
4972;BME280;2501;51.214;6.768;2022-12-18T03:12:43;102557.06;;;-4.29;85.16
4972;BME280;2501;51.214;6.768;2022-12-18T03:15:15;102565.63;;;-4.28;85.49
4972;BME280;2501;51.214;6.768;2022-12-18T03:17:48;102558.69;;;-4.21;85.54
4972;BME280;2501;51.214;6.768;2022-12-18T03:20:21;102558.97;;;-4.17;85.46
4972;BME280;2501;51.214;6.768;2022-12-18T03:22:53;102554.03;;;-4.25;85.28
4972;BME280;2501;51.214;6.768;2022-12-18T03:25:25;102560.66;;;-4.27;85.58
4972;BME280;2501;51.214;6.768;2022-12-18T03:28:00;102544.06;;;-4.22;85.54
4972;BME280;2501;51.214;6.768;2022-12-18T03:30:32;102544.91;;;-4.12;85.48
4972;BME280;2501;51.214;6.768;2022-12-18T03:33:05;102535.63;;;-4.21;85.64
4972;BME280;2501;51.214;6.768;2022-12-18T03:35:38;102543.94;;;-4.23;85.62
4972;BME280;2501;51.214;6.768;2022-12-18T03:38:07;102548.81;;;-4.07;85.52
4972;BME280;2501;51.214;6.768;2022-12-18T03:40:53;102544.91;;;-4.12;85.59
4972;BME280;2501;51.214;6.768;2022-12-18T03:43:35;102555.31;;;-4.11;85.14
4972;BME280;2501;51.214;6.768;2022-12-18T03:46:09;102543.38;;;-4.10;84.98
4972;BME280;2501;51.214;6.768;2022-12-18T03:48:43;102552.75;;;-4.11;84.92
4972;BME280;2501;51.214;6.768;2022-12-18T03:51:18;102547.97;;;-4.16;84.85
4972;BME280;2501;51.214;6.768;2022-12-18T03:53:52;102542.69;;;-4.18;84.67
4972;BME280;2501;51.214;6.768;2022-12-18T03:56:22;102538.47;;;-4.17;84.92
4972;BME280;2501;51.214;6.768;2022-12-18T03:58:56;102535.81;;;-4.00;84.95
4972;BME280;2501;51.214;6.768;2022-12-18T04:01:31;102537.84;;;-4.15;84.86
4972;BME280;2501;51.214;6.768;2022-12-18T04:04:01;102535.28;;;-4.15;84.72
4972;BME280;2501;51.214;6.768;2022-12-18T04:06:36;102530.88;;;-4.07;84.86
4972;BME280;2501;51.214;6.768;2022-12-18T04:09:05;102525.13;;;-4.05;84.85
4972;BME280;2501;51.214;6.768;2022-12-18T04:11:34;102531.47;;;-4.10;84.65
4972;BME280;2501;51.214;6.768;2022-12-18T04:14:05;102526.28;;;-4.20;84.80
4972;BME280;2501;51.214;6.768;2022-12-18T04:16:33;102520.53;;;-4.17;84.93
4972;BME280;2501;51.214;6.768;2022-12-18T04:19:02;102522.06;;;-4.19;85.37
4972;BME280;2501;51.214;6.768;2022-12-18T04:21:30;102518.91;;;-4.26;85.22
4972;BME280;2501;51.214;6.768;2022-12-18T04:23:59;102520.44;;;-4.28;85.54
4972;BME280;2501;51.214;6.768;2022-12-18T04:26:27;102520.00;;;-4.05;85.58
4972;BME280;2501;51.214;6.768;2022-12-18T04:28:55;102521.91;;;-4.21;85.31
4972;BME280;2501;51.214;6.768;2022-12-18T04:31:27;102523.00;;;-4.28;85.66
4972;BME280;2501;51.214;6.768;2022-12-18T04:33:55;102527.22;;;-4.28;85.52
4972;BME280;2501;51.214;6.768;2022-12-18T04:36:23;102524.34;;;-4.31;85.41
4972;BME280;2501;51.214;6.768;2022-12-18T04:38:52;102513.66;;;-4.27;85.77
4972;BME280;2501;51.214;6.768;2022-12-18T04:41:20;102516.31;;;-4.17;85.74
4972;BME280;2501;51.214;6.768;2022-12-18T04:43:49;102516.81;;;-4.30;85.46
4972;BME280;2501;51.214;6.768;2022-12-18T04:46:17;102515.31;;;-4.28;85.62
4972;BME280;2501;51.214;6.768;2022-12-18T04:48:48;102513.66;;;-4.27;85.76
4972;BME280;2501;51.214;6.768;2022-12-18T04:51:17;102517.44;;;-4.32;85.54
4972;BME280;2501;51.214;6.768;2022-12-18T04:53:45;102517.88;;;-4.28;85.75
4972;BME280;2501;51.214;6.768;2022-12-18T04:56:15;102513.72;;;-4.36;85.85
4972;BME280;2501;51.214;6.768;2022-12-18T04:58:44;102508.97;;;-4.23;85.88
4972;BME280;2501;51.214;6.768;2022-12-18T05:01:14;102507.06;;;-4.34;85.97
4972;BME280;2501;51.214;6.768;2022-12-18T05:03:43;102497.91;;;-4.40;86.04
4972;BME280;2501;51.214;6.768;2022-12-18T05:06:14;102491.28;;;-4.38;86.41
4972;BME280;2501;51.214;6.768;2022-12-18T05:08:42;102485.38;;;-4.37;86.66
4972;BME280;2501;51.214;6.768;2022-12-18T05:11:12;102495.97;;;-4.43;86.74
4972;BME280;2501;51.214;6.768;2022-12-18T05:13:43;102507.69;;;-4.36;86.81
4972;BME280;2501;51.214;6.768;2022-12-18T05:16:12;102504.09;;;-4.47;87.04
4972;BME280;2501;51.214;6.768;2022-12-18T05:18:41;102506.25;;;-4.51;86.98
4972;BME280;2501;51.214;6.768;2022-12-18T05:21:09;102502.31;;;-4.48;87.32
4972;BME280;2501;51.214;6.768;2022-12-18T05:23:40;102496.25;;;-4.40;86.92
4972;BME280;2501;51.214;6.768;2022-12-18T05:26:09;102495.78;;;-4.36;86.94
4972;BME280;2501;51.214;6.768;2022-12-18T05:28:42;102490.06;;;-4.42;87.11
4972;BME280;2501;51.214;6.768;2022-12-18T05:31:11;102495.81;;;-4.44;86.90
4972;BME280;2501;51.214;6.768;2022-12-18T05:33:40;102500.94;;;-4.44;86.91
4972;BME280;2501;51.214;6.768;2022-12-18T05:36:09;102512.22;;;-4.42;86.96
4972;BME280;2501;51.214;6.768;2022-12-18T05:38:40;102514.63;;;-4.44;86.88
4972;BME280;2501;51.214;6.768;2022-12-18T05:41:09;102522.03;;;-4.47;87.05
4972;BME280;2501;51.214;6.768;2022-12-18T05:43:38;102519.31;;;-4.40;87.31
4972;BME280;2501;51.214;6.768;2022-12-18T05:46:08;102513.44;;;-4.47;87.25
4972;BME280;2501;51.214;6.768;2022-12-18T05:48:39;102528.34;;;-4.43;87.26
4972;BME280;2501;51.214;6.768;2022-12-18T05:51:09;102532.88;;;-4.49;87.33
4972;BME280;2501;51.214;6.768;2022-12-18T05:53:41;102533.97;;;-4.56;87.33
4972;BME280;2501;51.214;6.768;2022-12-18T05:56:12;102534.53;;;-4.41;87.48
4972;BME280;2501;51.214;6.768;2022-12-18T05:58:41;102543.75;;;-4.52;87.23
4972;BME280;2501;51.214;6.768;2022-12-18T06:01:12;102549.91;;;-4.50;87.73
4972;BME280;2501;51.214;6.768;2022-12-18T06:03:41;102551.16;;;-4.55;87.83
4972;BME280;2501;51.214;6.768;2022-12-18T06:06:14;102551.91;;;-4.56;87.98
4972;BME280;2501;51.214;6.768;2022-12-18T06:08:45;102557.19;;;-4.54;88.15
4972;BME280;2501;51.214;6.768;2022-12-18T06:11:18;102563.06;;;-4.56;88.11
4972;BME280;2501;51.214;6.768;2022-12-18T06:13:48;102566.81;;;-4.52;88.28
4972;BME280;2501;51.214;6.768;2022-12-18T06:16:17;102574.50;;;-4.52;88.12
4972;BME280;2501;51.214;6.768;2022-12-18T06:18:46;102565.00;;;-4.53;88.26
4972;BME280;2501;51.214;6.768;2022-12-18T06:21:14;102572.41;;;-4.56;88.39
4972;BME280;2501;51.214;6.768;2022-12-18T06:23:45;102569.63;;;-4.49;88.46
4972;BME280;2501;51.214;6.768;2022-12-18T06:26:14;102571.63;;;-4.55;88.31
4972;BME280;2501;51.214;6.768;2022-12-18T06:28:42;102568.03;;;-4.57;88.27
4972;BME280;2501;51.214;6.768;2022-12-18T06:31:11;102562.59;;;-4.60;88.42
4972;BME280;2501;51.214;6.768;2022-12-18T06:33:40;102560.50;;;-4.64;88.13
4972;BME280;2501;51.214;6.768;2022-12-18T06:36:10;102544.84;;;-4.67;88.21
4972;BME280;2501;51.214;6.768;2022-12-18T06:38:41;102549.72;;;-4.70;88.29
4972;BME280;2501;51.214;6.768;2022-12-18T06:41:14;102538.19;;;-4.57;88.49
4972;BME280;2501;51.214;6.768;2022-12-18T06:43:43;102537.09;;;-4.50;87.96
4972;BME280;2501;51.214;6.768;2022-12-18T06:46:12;102534.88;;;-4.56;87.97
4972;BME280;2501;51.214;6.768;2022-12-18T06:48:41;102537.59;;;-4.63;87.67
4972;BME280;2501;51.214;6.768;2022-12-18T06:51:09;102529.72;;;-4.47;87.96
4972;BME280;2501;51.214;6.768;2022-12-18T06:53:38;102513.66;;;-4.63;87.50
4972;BME280;2501;51.214;6.768;2022-12-18T06:56:07;102517.44;;;-4.60;87.71
4972;BME280;2501;51.214;6.768;2022-12-18T06:58:38;102511.69;;;-4.57;87.90
4972;BME280;2501;51.214;6.768;2022-12-18T07:01:09;102516.06;;;-4.56;87.85
4972;BME280;2501;51.214;6.768;2022-12-18T07:03:38;102515.13;;;-4.21;87.85
4972;BME280;2501;51.214;6.768;2022-12-18T07:06:13;102516.03;;;-4.20;87.26
4972;BME280;2501;51.214;6.768;2022-12-18T07:08:41;102510.31;;;-4.26;86.37
4972;BME280;2501;51.214;6.768;2022-12-18T07:11:10;102507.53;;;-4.38;86.42
4972;BME280;2501;51.214;6.768;2022-12-18T07:13:41;102512.28;;;-4.24;86.52
4972;BME280;2501;51.214;6.768;2022-12-18T07:16:11;102513.50;;;-4.29;85.82
4972;BME280;2501;51.214;6.768;2022-12-18T07:18:40;102511.59;;;-4.12;85.36
4972;BME280;2501;51.214;6.768;2022-12-18T07:21:10;102514.56;;;-4.27;85.32
4972;BME280;2501;51.214;6.768;2022-12-18T07:23:38;102518.34;;;-4.04;85.21
4972;BME280;2501;51.214;6.768;2022-12-18T07:26:08;102519.78;;;-4.16;84.77
4972;BME280;2501;51.214;6.768;2022-12-18T07:28:38;102516.06;;;-4.01;84.35
4972;BME280;2501;51.214;6.768;2022-12-18T07:31:12;102518.81;;;-4.08;84.48
4972;BME280;2501;51.214;6.768;2022-12-18T07:33:41;102507.28;;;-4.22;84.21
4972;BME280;2501;51.214;6.768;2022-12-18T07:36:12;102503.97;;;-4.21;84.74
4972;BME280;2501;51.214;6.768;2022-12-18T07:38:41;102499.50;;;-4.05;84.33
4972;BME280;2501;51.214;6.768;2022-12-18T07:41:11;102495.13;;;-4.06;84.61
4972;BME280;2501;51.214;6.768;2022-12-18T07:43:41;102497.28;;;-4.10;84.18
4972;BME280;2501;51.214;6.768;2022-12-18T07:46:13;102503.72;;;-4.05;84.05
4972;BME280;2501;51.214;6.768;2022-12-18T07:48:43;102505.56;;;-4.13;83.78
4972;BME280;2501;51.214;6.768;2022-12-18T07:51:12;102508.56;;;-4.08;83.56
4972;BME280;2501;51.214;6.768;2022-12-18T07:53:41;102501.44;;;-4.02;83.31
4972;BME280;2501;51.214;6.768;2022-12-18T07:56:11;102512.31;;;-4.05;83.43
4972;BME280;2501;51.214;6.768;2022-12-18T07:58:39;102497.22;;;-4.02;82.96
4972;BME280;2501;51.214;6.768;2022-12-18T08:01:12;102493.63;;;-4.04;83.18
4972;BME280;2501;51.214;6.768;2022-12-18T08:03:40;102481.84;;;-4.02;83.16
4972;BME280;2501;51.214;6.768;2022-12-18T08:06:09;102470.56;;;-4.04;83.06
4972;BME280;2501;51.214;6.768;2022-12-18T08:08:38;102470.09;;;-4.00;83.04
4972;BME280;2501;51.214;6.768;2022-12-18T08:11:07;102467.00;;;-3.96;83.04
4972;BME280;2501;51.214;6.768;2022-12-18T08:13:36;102469.84;;;-3.93;83.09
4972;BME280;2501;51.214;6.768;2022-12-18T08:16:06;102473.91;;;-3.86;82.72
4972;BME280;2501;51.214;6.768;2022-12-18T08:18:37;102452.75;;;-3.83;82.50
4972;BME280;2501;51.214;6.768;2022-12-18T08:21:09;102450.69;;;-3.69;82.29
4972;BME280;2501;51.214;6.768;2022-12-18T08:23:38;102453.72;;;-3.73;81.93
4972;BME280;2501;51.214;6.768;2022-12-18T08:26:07;102447.88;;;-3.62;81.69
4972;BME280;2501;51.214;6.768;2022-12-18T08:28:35;102446.97;;;-3.62;81.25
4972;BME280;2501;51.214;6.768;2022-12-18T08:31:04;102445.31;;;-3.62;81.19
4972;BME280;2501;51.214;6.768;2022-12-18T08:33:33;102446.16;;;-3.71;81.33
4972;BME280;2501;51.214;6.768;2022-12-18T08:36:05;102443.59;;;-3.71;81.32
4972;BME280;2501;51.214;6.768;2022-12-18T08:38:34;102436.19;;;-3.68;81.09
4972;BME280;2501;51.214;6.768;2022-12-18T08:41:04;102446.06;;;-3.63;81.29
4972;BME280;2501;51.214;6.768;2022-12-18T08:43:33;102450.25;;;-3.55;81.09
4972;BME280;2501;51.214;6.768;2022-12-18T08:46:14;102446.78;;;-3.55;80.63
4972;BME280;2501;51.214;6.768;2022-12-18T08:48:43;102448.44;;;-3.56;80.57
4972;BME280;2501;51.214;6.768;2022-12-18T08:51:16;102437.97;;;-3.48;80.61
4972;BME280;2501;51.214;6.768;2022-12-18T08:53:45;102438.75;;;-3.39;80.37
4972;BME280;2501;51.214;6.768;2022-12-18T08:56:14;102436.63;;;-3.35;80.03
4972;BME280;2501;51.214;6.768;2022-12-18T08:58:43;102433.81;;;-3.28;79.89
4972;BME280;2501;51.214;6.768;2022-12-18T09:01:14;102438.38;;;-3.15;79.75
4972;BME280;2501;51.214;6.768;2022-12-18T09:03:43;102441.44;;;-3.09;79.71
4972;BME280;2501;51.214;6.768;2022-12-18T09:06:17;102439.63;;;-3.10;79.24
4972;BME280;2501;51.214;6.768;2022-12-18T09:08:46;102433.25;;;-3.05;79.02
4972;BME280;2501;51.214;6.768;2022-12-18T09:11:18;102426.22;;;-2.97;78.91
4972;BME280;2501;51.214;6.768;2022-12-18T09:13:47;102425.31;;;-2.98;78.80
4972;BME280;2501;51.214;6.768;2022-12-18T09:16:15;102420.97;;;-2.99;78.41
4972;BME280;2501;51.214;6.768;2022-12-18T09:18:45;102424.44;;;-2.88;78.33
4972;BME280;2501;51.214;6.768;2022-12-18T09:21:18;102419.16;;;-2.90;77.78
4972;BME280;2501;51.214;6.768;2022-12-18T09:23:49;102417.13;;;-2.73;77.48
4972;BME280;2501;51.214;6.768;2022-12-18T09:26:18;102429.25;;;-2.62;77.23
4972;BME280;2501;51.214;6.768;2022-12-18T09:28:48;102437.97;;;-2.70;76.85
4972;BME280;2501;51.214;6.768;2022-12-18T09:31:18;102430.38;;;-2.59;76.69
4972;BME280;2501;51.214;6.768;2022-12-18T09:33:49;102419.22;;;-2.59;76.66
4972;BME280;2501;51.214;6.768;2022-12-18T09:36:20;102405.50;;;-2.50;76.53
4972;BME280;2501;51.214;6.768;2022-12-18T09:38:49;102411.78;;;-2.46;76.26
4972;BME280;2501;51.214;6.768;2022-12-18T09:41:32;102400.06;;;-2.22;75.99
4972;BME280;2501;51.214;6.768;2022-12-18T09:44:09;102387.50;;;-2.29;75.76
4972;BME280;2501;51.214;6.768;2022-12-18T09:46:43;102392.38;;;-2.22;75.44
4972;BME280;2501;51.214;6.768;2022-12-18T09:49:17;102394.94;;;-2.12;75.01
4972;BME280;2501;51.214;6.768;2022-12-18T09:51:52;102400.81;;;-2.03;74.65
4972;BME280;2501;51.214;6.768;2022-12-18T09:54:25;102405.84;;;-2.04;74.29
4972;BME280;2501;51.214;6.768;2022-12-18T09:56:55;102394.53;;;-1.96;73.68
4972;BME280;2501;51.214;6.768;2022-12-18T09:59:25;102385.28;;;-1.94;73.53
4972;BME280;2501;51.214;6.768;2022-12-18T10:01:56;102375.25;;;-1.91;73.05
4972;BME280;2501;51.214;6.768;2022-12-18T10:04:25;102377.53;;;-1.84;72.54
4972;BME280;2501;51.214;6.768;2022-12-18T10:07:04;102385.50;;;-1.81;72.11
4972;BME280;2501;51.214;6.768;2022-12-18T10:09:40;102374.31;;;-1.82;71.69
4972;BME280;2501;51.214;6.768;2022-12-18T10:12:17;102369.00;;;-1.73;71.49
4972;BME280;2501;51.214;6.768;2022-12-18T10:14:55;102363.75;;;-1.74;71.17
4972;BME280;2501;51.214;6.768;2022-12-18T10:17:29;102358.16;;;-1.59;71.17
4972;BME280;2501;51.214;6.768;2022-12-18T10:20:05;102353.91;;;-1.58;70.81
4972;BME280;2501;51.214;6.768;2022-12-18T10:22:50;102352.44;;;-1.55;70.71
4972;BME280;2501;51.214;6.768;2022-12-18T10:25:24;102356.94;;;-1.52;70.62
4972;BME280;2501;51.214;6.768;2022-12-18T10:27:55;102354.03;;;-1.57;70.33
4972;BME280;2501;51.214;6.768;2022-12-18T10:30:26;102361.69;;;-1.47;70.39
4972;BME280;2501;51.214;6.768;2022-12-18T10:33:00;102347.44;;;-1.53;70.31
4972;BME280;2501;51.214;6.768;2022-12-18T10:35:29;102351.34;;;-1.36;70.03
4972;BME280;2501;51.214;6.768;2022-12-18T10:38:19;102345.59;;;-1.44;69.94
4972;BME280;2501;51.214;6.768;2022-12-18T10:40:51;102340.84;;;-1.39;70.12
4972;BME280;2501;51.214;6.768;2022-12-18T10:43:21;102339.25;;;-1.37;69.80
4972;BME280;2501;51.214;6.768;2022-12-18T10:46:02;102337.66;;;-1.25;69.57
4972;BME280;2501;51.214;6.768;2022-12-18T10:48:34;102333.81;;;-1.09;69.61
4972;BME280;2501;51.214;6.768;2022-12-18T10:51:05;102323.66;;;-1.07;69.05
4972;BME280;2501;51.214;6.768;2022-12-18T10:53:37;102324.94;;;-1.12;68.50
4972;BME280;2501;51.214;6.768;2022-12-18T10:56:06;102327.25;;;-1.05;68.16
4972;BME280;2501;51.214;6.768;2022-12-18T10:58:36;102318.16;;;-1.00;68.58
4972;BME280;2501;51.214;6.768;2022-12-18T11:01:08;102309.13;;;-0.95;68.16
4972;BME280;2501;51.214;6.768;2022-12-18T11:03:38;102311.72;;;-0.83;67.71
4972;BME280;2501;51.214;6.768;2022-12-18T11:06:10;102297.50;;;-0.90;67.60
4972;BME280;2501;51.214;6.768;2022-12-18T11:08:43;102298.97;;;-0.82;67.17
4972;BME280;2501;51.214;6.768;2022-12-18T11:11:19;102295.19;;;-0.75;67.15
4972;BME280;2501;51.214;6.768;2022-12-18T11:13:58;102302.81;;;-0.65;66.93
4972;BME280;2501;51.214;6.768;2022-12-18T11:16:30;102296.44;;;-0.70;66.88
4972;BME280;2501;51.214;6.768;2022-12-18T11:19:19;102299.22;;;-0.67;66.72
4972;BME280;2501;51.214;6.768;2022-12-18T11:21:52;102302.13;;;-0.74;66.78
4972;BME280;2501;51.214;6.768;2022-12-18T11:24:27;102289.63;;;-0.69;66.58
4972;BME280;2501;51.214;6.768;2022-12-18T11:26:58;102293.94;;;-0.68;66.63
4972;BME280;2501;51.214;6.768;2022-12-18T11:29:36;102288.25;;;-0.64;66.80
4972;BME280;2501;51.214;6.768;2022-12-18T11:35:15;102275.72;;;-0.72;66.98
4972;BME280;2501;51.214;6.768;2022-12-18T11:37:48;102271.09;;;-0.76;67.18
4972;BME280;2501;51.214;6.768;2022-12-18T11:40:26;102270.31;;;-0.75;67.60
4972;BME280;2501;51.214;6.768;2022-12-18T11:43:01;102270.44;;;-0.73;67.76
4972;BME280;2501;51.214;6.768;2022-12-18T11:45:34;102254.41;;;-0.69;67.66
4972;BME280;2501;51.214;6.768;2022-12-18T11:48:12;102257.69;;;-0.72;67.51
4972;BME280;2501;51.214;6.768;2022-12-18T11:50:47;102267.22;;;-0.59;67.43
4972;BME280;2501;51.214;6.768;2022-12-18T11:53:17;102264.88;;;-0.44;67.12
4972;BME280;2501;51.214;6.768;2022-12-18T11:56:11;102256.91;;;-0.47;66.95
4972;BME280;2501;51.214;6.768;2022-12-18T11:58:48;102257.13;;;-0.56;67.03
4972;BME280;2501;51.214;6.768;2022-12-18T12:01:28;102255.22;;;-0.58;66.81
4972;BME280;2501;51.214;6.768;2022-12-18T12:04:15;102255.22;;;-0.58;67.31
4972;BME280;2501;51.214;6.768;2022-12-18T12:07:10;102251.53;;;-0.62;67.67
4972;BME280;2501;51.214;6.768;2022-12-18T12:09:45;102248.03;;;-0.62;67.34
4972;BME280;2501;51.214;6.768;2022-12-18T12:12:27;102251.22;;;-0.55;67.25
4972;BME280;2501;51.214;6.768;2022-12-18T12:15:17;102244.91;;;-0.58;67.14
4972;BME280;2501;51.214;6.768;2022-12-18T12:17:55;102241.56;;;-0.57;67.02
4972;BME280;2501;51.214;6.768;2022-12-18T12:20:36;102244.91;;;-0.70;67.12
4972;BME280;2501;51.214;6.768;2022-12-18T12:23:16;102237.84;;;-0.73;67.26
4972;BME280;2501;51.214;6.768;2022-12-18T12:25:52;102232.59;;;-0.62;67.30
4972;BME280;2501;51.214;6.768;2022-12-18T12:28:36;102222.16;;;-0.64;67.39
4972;BME280;2501;51.214;6.768;2022-12-18T12:31:14;102232.81;;;-0.59;67.30
4972;BME280;2501;51.214;6.768;2022-12-18T12:33:51;102233.91;;;-0.67;67.63
4972;BME280;2501;51.214;6.768;2022-12-18T12:36:32;102223.94;;;-0.75;67.75
4972;BME280;2501;51.214;6.768;2022-12-18T12:39:07;102221.25;;;-0.64;68.33
4972;BME280;2501;51.214;6.768;2022-12-18T12:41:39;102213.19;;;-0.69;68.20
4972;BME280;2501;51.214;6.768;2022-12-18T12:44:27;102208.84;;;-0.70;68.55
4972;BME280;2501;51.214;6.768;2022-12-18T12:47:01;102199.63;;;-0.66;68.14
4972;BME280;2501;51.214;6.768;2022-12-18T12:49:33;102204.78;;;-0.66;68.31
4972;BME280;2501;51.214;6.768;2022-12-18T12:52:06;102217.13;;;-0.74;68.16
4972;BME280;2501;51.214;6.768;2022-12-18T12:54:35;102225.50;;;-0.77;68.65
4972;BME280;2501;51.214;6.768;2022-12-18T12:57:09;102219.03;;;-0.72;68.74
4972;BME280;2501;51.214;6.768;2022-12-18T12:59:49;102213.72;;;-0.85;68.85
4972;BME280;2501;51.214;6.768;2022-12-18T13:02:22;102206.47;;;-0.79;68.93
4972;BME280;2501;51.214;6.768;2022-12-18T13:04:57;102199.06;;;-0.86;68.63
4972;BME280;2501;51.214;6.768;2022-12-18T13:07:32;102200.78;;;-0.75;69.00
4972;BME280;2501;51.214;6.768;2022-12-18T13:10:26;102204.13;;;-0.76;68.57
4972;BME280;2501;51.214;6.768;2022-12-18T13:12:56;102203.78;;;-0.68;68.64
4972;BME280;2501;51.214;6.768;2022-12-18T13:15:28;102195.25;;;-0.79;68.82
4972;BME280;2501;51.214;6.768;2022-12-18T13:18:16;102191.00;;;-0.90;69.03
4972;BME280;2501;51.214;6.768;2022-12-18T13:20:46;102192.50;;;-0.71;68.94
4972;BME280;2501;51.214;6.768;2022-12-18T13:23:25;102178.72;;;-0.71;69.12
4972;BME280;2501;51.214;6.768;2022-12-18T13:25:55;102172.88;;;-0.80;68.98
4972;BME280;2501;51.214;6.768;2022-12-18T13:28:50;102168.25;;;-0.84;68.75
4972;BME280;2501;51.214;6.768;2022-12-18T13:31:59;102160.53;;;-0.84;68.87
4972;BME280;2501;51.214;6.768;2022-12-18T13:34:29;102167.81;;;-0.90;68.68
4972;BME280;2501;51.214;6.768;2022-12-18T13:39:56;102151.72;;;-0.88;68.84
4972;BME280;2501;51.214;6.768;2022-12-18T13:42:38;102148.00;;;-0.91;68.89